Lima, Perú

11:52 PM PET en Julio 28, 2015 (GMT -0500)
Jorge Chavez International | | Change Station
CLOSE
Current Station
Aeropuerto
Location: Lima,
Altura: 43 ft
Estaciones meteorológicas cercanas

Alt 43 ft 12.01 °S, 77.12 °W | Updated 52 minutes ago

Overcast
Nublado
63 ° F
Sensación térmica 63 ° F
N
7
Viento Variable Viento desde Sur

Hoy
Alta -- | Baja -- ° F
--% Posibilidad de precipitaciones
Ayer
Alta -- | Baja -- ° F
Precip. -- pul
6:28 AM 6:01 PM
Gibosa creciente, 93% visible
Presión 29.98 pul
Visibilidad 6.2 Millas
Nubes Baja 1000 ft
Nublado 2300 ft
Punto de rocío 59 ° F
Humedad 88%
Precipitaciones 0.00 pul
Espesor de la nieve No disponible.
UV 0 de una escala de 12
Polen No disponible.
Calidad del aire No disponible.
Flu Activity No disponible.
METAR SPIM 290400Z 17006KT 9999 FEW010 OVC023 17/15 Q1015 NOSIG RMK PP000

More Conditions Fewer Conditions

Presión 29.98 pul
Visibilidad 6.2 Millas
Nubes Baja 1000 ft
Nublado 2300 ft
Punto de rocío 59 ° F
Humedad 88%
Precipitaciones 0.00 pul
Espesor de la nieve No disponible.
UV 0 de una escala de 12
Polen No disponible.
Calidad del aire No disponible.
Flu Activity No disponible.
METAR SPIM 290400Z 17006KT 9999 FEW010 OVC023 17/15 Q1015 NOSIG RMK PP000

More Conditions Fewer Conditions

10-Day Weather Forecast

×

Almanac

Astronomía

Jul. 28, 2015 Salida Puesta
Hora real
Crepúsculo civil
Crepúsculo náutico
Crepúsculo astronómico
Luna
Horas de luz
Horas de luz
Tomorrow will be .
, % of the Moon is Illuminated

Extremos de hoy

Máximos del país Bajas del país

Community

WunderPhotos

Upload Photos

1,842,045 ¡fotos cargadas!

WunderBlogs® & News

Nearby

Calidad del aire

  Calidad del aire Índice AQ Contaminante
Not available.

Grosos de nieve

Estación Profundido Altura

Actividad de terremotos

Ciudad Distance Mag. Tiempo y dato
Magnitud mínima muestra es 2,5.

Temperaturas de aguas costeras

Lugar Temperatura

Stations

Estaciones meteorológicas cercanas

Ubicación de la estación Temp. Vientos helados Punto de rocío Humedad Viento Precip. Alt Actualizado Tipo